St.peterburg Pilot — UAMI — position and weather

sailwx.info

Track history (hours):
 
Tides and Currents Weather Stations Pressure Air Temp Water Temp Dewpoint Dewpoint Depression Visibility Wind Speed Wind Dir Waves Ship Positions

St.peterburg Pilot

Last reported at 2016-Dec-02 11:19 UTC. Time now 2016-Dec-04 02:00 UTC.
Position N 60°00' E 029°38'.

Length 59 m; draft 3.8 m.

Type: Pilot. MMSI: 273436530.

Date/timePositionNaut miles runAvg speedWind from/ knotsBaromVisibWave heightAir tempDewpointWater temp
2016-Dec-02 11:19N 60°00' E 029°38'3 3.5
2016-Dec-02 10:30N 59°59' E 029°43'0 0.0
2016-Dec-02 09:33N 59°59' E 029°43'0 0.1
2016-Dec-02 08:33N 59°59' E 029°43'1 0.0
2016-Dec-01 10:33N 59°60' E 029°41'1 0.9
2016-Dec-01 09:31N 59°59' E 029°43'0 0.0
2016-Dec-01 08:33N 59°59' E 029°43'0 0.4
2016-Dec-01 07:33N 59°59' E 029°42'  
2016-Nov-25 10:32N 60°01' E 029°27'8 8.1
2016-Nov-25 09:33N 59°59' E 029°42'0 0.4
2016-Nov-25 08:25N 59°59' E 029°42'0 0.0
2016-Nov-25 07:31N 59°59' E 029°42'0 0.0
2016-Nov-25 06:28N 59°59' E 029°42'0 0.0
2016-Nov-25 04:32N 59°59' E 029°42'0 0.0
2016-Nov-25 03:31N 59°59' E 029°42'0 0.0
2016-Nov-24 23:14N 59°59' E 029°42'0 0.0
2016-Nov-24 22:25N 59°59' E 029°42'0 0.0
2016-Nov-24 21:30N 59°59' E 029°42'0 0.0
2016-Nov-24 20:26N 59°59' E 029°42'0 0.0
2016-Nov-24 19:30N 59°59' E 029°42'0 0.0
2016-Nov-24 18:32N 59°59' E 029°42'0 0.0
2016-Nov-24 17:30N 59°59' E 029°42'0 0.0
2016-Nov-24 16:24N 59°59' E 029°42'0 0.0
2016-Nov-24 15:31N 59°59' E 029°42'3 0.1
2016-Nov-23 17:33N 59°58' E 029°48'1110.5
2016-Nov-23 16:33N 59°54' E 030°07'3 3.0
2016-Nov-23 15:31N 59°54' E 030°13'0 0.0
2016-Nov-23 13:30N 59°54' E 030°13'0 0.0
2016-Nov-23 12:33N 59°54' E 030°13'0 0.0
2016-Nov-23 11:30N 59°54' E 030°13'0 0.0
2016-Nov-23 10:33N 59°54' E 030°13'0 0.0
2016-Nov-23 09:29N 59°54' E 030°13'0 0.0
2016-Nov-23 08:33N 59°54' E 030°13'0 0.0
2016-Nov-23 07:29N 59°54' E 030°13'1 0.8
2016-Nov-23 06:33N 59°53' E 030°12'  
Track history (hours):
 
Tides and Currents Weather Stations Pressure Air Temp Water Temp Dewpoint Dewpoint Depression Visibility Wind Speed Wind Dir Waves Ship Positions

St.peterburg Pilot

Last reported at 2016-Dec-02 11:19 UTC. Time now 2016-Dec-04 02:00 UTC.
Position N 60°00' E 029°38'.

Length 59 m; draft 3.8 m.

Type: Pilot. MMSI: 273436530.

Date/timePositionNaut miles runAvg speedWind from/ knotsBaromVisibWave heightAir tempDewpointWater temp
2016-Dec-02 11:19N 60°00' E 029°38'3 3.5
2016-Dec-02 10:30N 59°59' E 029°43'0 0.0
2016-Dec-02 09:33N 59°59' E 029°43'0 0.1
2016-Dec-02 08:33N 59°59' E 029°43'1 0.0
2016-Dec-01 10:33N 59°60' E 029°41'1 0.9
2016-Dec-01 09:31N 59°59' E 029°43'0 0.0
2016-Dec-01 08:33N 59°59' E 029°43'0 0.4
2016-Dec-01 07:33N 59°59' E 029°42'  
2016-Nov-25 10:32N 60°01' E 029°27'8 8.1
2016-Nov-25 09:33N 59°59' E 029°42'0 0.4
2016-Nov-25 08:25N 59°59' E 029°42'0 0.0
2016-Nov-25 07:31N 59°59' E 029°42'0 0.0
2016-Nov-25 06:28N 59°59' E 029°42'0 0.0
2016-Nov-25 04:32N 59°59' E 029°42'0 0.0
2016-Nov-25 03:31N 59°59' E 029°42'0 0.0
2016-Nov-24 23:14N 59°59' E 029°42'0 0.0
2016-Nov-24 22:25N 59°59' E 029°42'0 0.0
2016-Nov-24 21:30N 59°59' E 029°42'0 0.0
2016-Nov-24 20:26N 59°59' E 029°42'0 0.0
2016-Nov-24 19:30N 59°59' E 029°42'0 0.0
2016-Nov-24 18:32N 59°59' E 029°42'0 0.0
2016-Nov-24 17:30N 59°59' E 029°42'0 0.0
2016-Nov-24 16:24N 59°59' E 029°42'0 0.0
2016-Nov-24 15:31N 59°59' E 029°42'3 0.1
2016-Nov-23 17:33N 59°58' E 029°48'1110.5
2016-Nov-23 16:33N 59°54' E 030°07'3 3.0
2016-Nov-23 15:31N 59°54' E 030°13'0 0.0
2016-Nov-23 13:30N 59°54' E 030°13'0 0.0
2016-Nov-23 12:33N 59°54' E 030°13'0 0.0
2016-Nov-23 11:30N 59°54' E 030°13'0 0.0
2016-Nov-23 10:33N 59°54' E 030°13'0 0.0
2016-Nov-23 09:29N 59°54' E 030°13'0 0.0
2016-Nov-23 08:33N 59°54' E 030°13'0 0.0
2016-Nov-23 07:29N 59°54' E 030°13'1 0.8
2016-Nov-23 06:33N 59°53' E 030°12'  

Dump ship's entire track history